Back Gate, Arkansas
Current Conditions -  °F | °C
As of 2:00 PM on Sunday 23 Nov 2014 (Local Time) from KLLQ Reporting Station
Overcast Overcast  
Wind Chill: 62°   Ceiling: 1100
Heat Index: 62°   Visibility: 10mi
Dew Point: 60°   Wind: 12mph
Humidity: 93%   Direction: 250°WSW
Pressure: 29.42"   Gusts: NA
Location:  33.9283°N, 91.468°W
Report Text: KLLQ 232000Z AUTO 25010KT 10SM FEW006 BKN011 OVC016 17/16 A2942 RMK AO2 CIG 008V013 T01670156
Loading
Personal Weather Stations






























Interactive Weather Map New forecast layout! Learn more

10-Day Weather Forecast

Advertisements
Track Severe Weather on mobile